Time;durP1;ratioP1;P1;durP2;ratioP2;P2;SDS_P1;SDS_P2;PMS_P1;PMS_P2;Temp;Humidity;BMP_temperature;BMP_pressure;BME280_temperature;BME280_humidity;BME280_pressure;Samples;Min_cycle;Max_cycle;Signal;HPM_P1;HPM_P2
2022/01/14 00:01:37;;;;;;;40.95;27.58;;;;;;;;;;5003783;28;20352;-69
2022/01/14 00:04:03;;;;;;;43.92;28.38;;;;;;;;;;5008340;28;20062;-70
2022/01/14 00:06:29;;;;;;;27.08;22.55;;;;;;;;;;5001936;28;20057;-72
2022/01/14 00:09:02;;;;;;;34.03;25.65;;;;;;;;;;5009843;28;20041;-70
2022/01/14 00:11:30;;;;;;;40.58;27.50;;;;;;;;;;5005824;28;20500;-70
2022/01/14 00:14:09;;;;;;;41.78;27.50;;;;;;;;;;5016616;28;20120;-70
2022/01/14 00:16:35;;;;;;;;;;;;;;;;;;5008568;28;20040;-70
2022/01/14 00:19:01;;;;;;;50.15;33.03;;;;;;;;;;5005406;28;19913;-70
2022/01/14 00:21:27;;;;;;;46.50;31.83;;;;;;;;;;5014082;28;20037;-70
2022/01/14 00:24:05;;;;;;;43.42;28.33;;;;;;;;;;5011811;28;20489;-70
2022/01/14 00:32:07;;;;;;;46.38;30.42;;;;;;;;;;5003569;28;20160;-71
2022/01/14 00:34:32;;;;;;;40.85;28.63;;;;;;;;;;5016836;28;20033;-70
2022/01/14 00:37:00;;;;;;;50.97;29.60;;;;;;;;;;5009802;28;20034;-71
2022/01/14 00:39:26;;;;;;;46.90;30.25;;;;;;;;;;5006271;28;20459;-71
2022/01/14 00:41:52;;;;;;;46.58;30.50;;;;;;;;;;5010550;28;20037;-71
2022/01/14 00:44:19;;;;;;;51.60;30.63;;;;;;;;;;5009756;28;20034;-71
2022/01/14 00:46:46;;;;;;;44.53;30.73;;;;;;;;;;5009042;28;20120;-71
2022/01/14 00:49:14;;;;;;;48.13;30.17;;;;;;;;;;5012757;28;20385;-69
2022/01/14 00:51:39;;;;;;;48.20;31.45;;;;;;;;;;5007697;28;20044;-69
2022/01/14 00:54:06;;;;;;;46.90;30.60;;;;;;;;;;5008906;28;20037;-72
2022/01/14 00:56:46;;;;;;;50.95;32.67;;;;;;;;;;5008190;28;20037;-72
2022/01/14 00:59:14;;;;;;;41.22;27.88;;;;;;;;;;5008899;28;20406;-69
2022/01/14 01:01:51;;;;;;;53.78;32.00;;;;;;;;;;5006577;28;20041;-69
2022/01/14 01:04:40;;;;;;;46.47;29.67;;;;;;;;;;5003601;28;20040;-71
2022/01/14 01:07:08;;;;;;;31.65;23.52;;;;;;;;;;4999368;28;20551;-70
2022/01/14 01:09:36;;;;;;;22.52;19.17;;;;;;;;;;5004193;28;20501;-71
2022/01/14 01:12:10;;;;;;;49.22;29.25;;;;;;;;;;5008375;28;20041;-70
2022/01/14 01:14:44;;;;;;;44.42;31.65;;;;;;;;;;5008038;28;20465;-70
2022/01/14 01:17:11;;;;;;;47.33;30.33;;;;;;;;;;5007439;28;20042;-71
2022/01/14 01:19:37;;;;;;;53.15;33.10;;;;;;;;;;5006248;28;20483;-71
2022/01/14 01:22:03;;;;;;;56.35;33.90;;;;;;;;;;5006956;28;20042;-71
2022/01/14 01:24:41;;;;;;;57.83;33.00;;;;;;;;;;5001122;28;20164;-72
2022/01/14 01:27:08;;;;;;;56.13;31.58;;;;;;;;;;5009124;28;20101;-71
2022/01/14 01:32:07;;;;;;;45.28;31.30;;;;;;;;;;5005904;28;20038;-70
2022/01/14 01:34:34;;;;;;;49.08;30.27;;;;;;;;;;5007817;28;20030;-69
2022/01/14 01:37:01;;;;;;;49.10;31.98;;;;;;;;;;5008391;28;20039;-70
2022/01/14 01:39:29;;;;;;;42.05;29.50;;;;;;;;;;5005124;28;20038;-69
2022/01/14 01:41:57;;;;;;;39.75;28.27;;;;;;;;;;5014999;28;20069;-69
2022/01/14 01:44:25;;;;;;;54.63;33.15;;;;;;;;;;5008444;28;20037;-69
2022/01/14 01:46:53;;;;;;;38.63;28.27;;;;;;;;;;4981578;28;20057;-69
2022/01/14 01:49:21;;;;;;;51.08;31.52;;;;;;;;;;5005039;28;20030;-69
2022/01/14 01:51:48;;;;;;;34.63;26.77;;;;;;;;;;5019274;28;20071;-69
2022/01/14 01:54:16;;;;;;;34.15;25.98;;;;;;;;;;5007143;28;20387;-70
2022/01/14 01:56:42;;;;;;;47.53;30.50;;;;;;;;;;5008660;28;20026;-69
2022/01/14 01:59:09;;;;;;;39.72;28.88;;;;;;;;;;5010030;28;20041;-69
2022/01/14 02:01:37;;;;;;;42.20;29.48;;;;;;;;;;5009108;28;20497;-72
2022/01/14 02:04:03;;;;;;;44.13;29.52;;;;;;;;;;5009683;28;20381;-72
2022/01/14 02:06:29;;;;;;;59.10;31.73;;;;;;;;;;5008966;28;20045;-69
2022/01/14 02:08:54;;;;;;;48.75;31.10;;;;;;;;;;5006862;28;20033;-70
2022/01/14 02:11:20;;;;;;;53.90;31.83;;;;;;;;;;5008746;28;20466;-69
2022/01/14 02:13:48;;;;;;;55.72;32.28;;;;;;;;;;5005289;28;20033;-70
2022/01/14 02:16:30;;;;;;;49.40;31.13;;;;;;;;;;4991991;28;20030;-69
2022/01/14 02:22:13;;;;;;;53.85;32.88;;;;;;;;;;4926621;29;20512;-71
2022/01/14 02:27:09;;;;;;;49.05;30.98;;;;;;;;;;4930482;29;20074;-69
2022/01/14 02:29:35;;;;;;;33.92;24.55;;;;;;;;;;4929077;29;20124;-69
2022/01/14 02:32:01;;;;;;;46.22;30.80;;;;;;;;;;4923790;29;20083;-69
2022/01/14 02:34:28;;;;;;;50.33;31.15;;;;;;;;;;4929982;29;20058;-72
2022/01/14 02:36:54;;;;;;;45.40;29.83;;;;;;;;;;4934624;29;20404;-70
2022/01/14 02:39:20;;;;;;;45.58;28.70;;;;;;;;;;4922324;29;20563;-70
2022/01/14 02:41:48;;;;;;;46.03;30.38;;;;;;;;;;4926800;29;20071;-70
2022/01/14 02:44:19;;;;;;;40.10;27.02;;;;;;;;;;4933085;29;20047;-69
2022/01/14 02:46:53;;;;;;;43.33;29.35;;;;;;;;;;4924432;29;20027;-70
2022/01/14 02:49:20;;;;;;;43.67;28.35;;;;;;;;;;4927266;29;20055;-69
2022/01/14 02:51:46;;;;;;;44.38;25.90;;;;;;;;;;4929399;29;20051;-70
2022/01/14 02:54:15;;;;;;;30.38;24.90;;;;;;;;;;4923868;29;20099;-70
2022/01/14 02:56:43;;;;;;;40.55;26.27;;;;;;;;;;4920399;29;20458;-70
2022/01/14 02:59:13;;;;;;;37.13;26.65;;;;;;;;;;5000005;28;20077;-69
2022/01/14 03:01:40;;;;;;;46.08;30.08;;;;;;;;;;5008944;28;20073;-71
2022/01/14 03:04:07;;;;;;;39.17;28.45;;;;;;;;;;5004925;28;20040;-71
2022/01/14 03:06:33;;;;;;;55.05;34.20;;;;;;;;;;5007075;28;20066;-70
2022/01/14 03:09:00;;;;;;;38.20;26.90;;;;;;;;;;5006503;28;20084;-69
2022/01/14 03:11:36;;;;;;;38.72;28.58;;;;;;;;;;5005353;28;20131;-72
2022/01/14 03:14:04;;;;;;;37.70;26.85;;;;;;;;;;5008839;28;20112;-69
2022/01/14 03:16:37;;;;;;;37.72;26.48;;;;;;;;;;5006829;28;20484;-69
2022/01/14 03:19:07;;;;;;;44.30;29.15;;;;;;;;;;5007423;28;20033;-70
2022/01/14 03:21:39;;;;;;;31.10;22.55;;;;;;;;;;5012067;28;20042;-70
2022/01/14 03:26:45;;;;;;;48.80;29.15;;;;;;;;;;4996482;28;20045;-71
2022/01/14 03:29:13;;;;;;;31.00;24.55;;;;;;;;;;5005049;28;20034;-68
2022/01/14 03:31:38;;;;;;;38.25;26.50;;;;;;;;;;5005914;28;20424;-71
2022/01/14 03:34:04;;;;;;;44.50;29.42;;;;;;;;;;5005244;28;20030;-70
2022/01/14 03:36:30;;;;;;;37.83;26.70;;;;;;;;;;4987703;28;20042;-70
2022/01/14 03:38:56;;;;;;;38.75;27.30;;;;;;;;;;5007883;28;20097;-70
2022/01/14 03:41:21;;;;;;;38.38;28.30;;;;;;;;;;5019407;28;20425;-70
2022/01/14 03:43:47;;;;;;;41.38;28.95;;;;;;;;;;5004636;28;20030;-70
2022/01/14 03:46:12;;;;;;;42.42;28.13;;;;;;;;;;5012754;28;20064;-70
2022/01/14 03:48:38;;;;;;;46.67;29.67;;;;;;;;;;5013552;28;20030;-71
2022/01/14 03:51:04;;;;;;;51.95;31.85;;;;;;;;;;5010111;28;20107;-70
2022/01/14 03:53:30;;;;;;;49.70;30.42;;;;;;;;;;5009390;28;20040;-71
2022/01/14 03:55:55;;;;;;;41.38;29.42;;;;;;;;;;5004610;28;20536;-71
2022/01/14 03:58:21;;;;;;;40.05;26.88;;;;;;;;;;5014812;28;20034;-70
2022/01/14 04:00:46;;;;;;;51.58;29.27;;;;;;;;;;5008614;28;20135;-69
2022/01/14 04:03:12;;;;;;;37.20;27.60;;;;;;;;;;5007359;28;20088;-71
2022/01/14 04:05:38;;;;;;;44.88;28.73;;;;;;;;;;5011261;28;20042;-69
2022/01/14 04:08:04;;;;;;;42.50;27.80;;;;;;;;;;4999421;28;20386;-70
2022/01/14 04:10:30;;;;;;;41.90;28.02;;;;;;;;;;5008729;28;20073;-72
2022/01/14 04:13:04;;;;;;;39.28;25.75;;;;;;;;;;5007184;28;20399;-71
2022/01/14 04:15:37;;;;;;;37.50;24.75;;;;;;;;;;5012286;28;20050;-71
2022/01/14 04:18:21;;;;;;;43.50;28.05;;;;;;;;;;5005016;28;20109;-70
2022/01/14 04:20:49;;;;;;;42.78;28.85;;;;;;;;;;5008247;28;20038;-70
2022/01/14 04:23:18;;;;;;;20.03;17.93;;;;;;;;;;5022860;28;20037;-68
2022/01/14 04:25:44;;;;;;;41.38;28.42;;;;;;;;;;5006916;28;20042;-69
2022/01/14 04:28:11;;;;;;;29.75;23.98;;;;;;;;;;5007049;28;20497;-70
2022/01/14 04:30:37;;;;;;;43.58;27.83;;;;;;;;;;5009145;28;20033;-71
2022/01/14 04:33:05;;;;;;;32.80;25.52;;;;;;;;;;5018138;28;20030;-71
2022/01/14 04:35:32;;;;;;;34.60;25.08;;;;;;;;;;5009287;28;20038;-69
2022/01/14 04:37:58;;;;;;;23.42;19.08;;;;;;;;;;5003827;28;20125;-70
2022/01/14 04:40:25;;;;;;;24.83;21.80;;;;;;;;;;5007687;28;20109;-71
2022/01/14 04:42:52;;;;;;;32.85;24.75;;;;;;;;;;5008826;28;20056;-71
2022/01/14 04:47:54;;;;;;;22.67;20.38;;;;;;;;;;5015530;28;20034;-70
2022/01/14 04:50:22;;;;;;;43.70;26.92;;;;;;;;;;4993403;28;20036;-71
2022/01/14 04:52:48;;;;;;;33.40;24.50;;;;;;;;;;5008213;28;20022;-71
2022/01/14 04:55:17;;;;;;;27.25;22.10;;;;;;;;;;5005146;28;20022;-69
2022/01/14 04:57:43;;;;;;;24.63;20.83;;;;;;;;;;5018194;28;20567;-70
2022/01/14 05:00:12;;;;;;;35.38;26.83;;;;;;;;;;5005251;28;20507;-70
2022/01/14 05:02:38;;;;;;;37.88;26.40;;;;;;;;;;5006927;28;20524;-70
2022/01/14 05:05:06;;;;;;;39.25;26.58;;;;;;;;;;5006675;28;20714;-69
2022/01/14 05:07:32;;;;;;;45.33;24.50;;;;;;;;;;5013590;28;20046;-71
2022/01/14 05:10:16;;;;;;;35.47;25.10;;;;;;;;;;5011152;28;20044;-69
2022/01/14 05:12:42;;;;;;;39.05;26.40;;;;;;;;;;5009511;28;20065;-71
2022/01/14 05:15:08;;;;;;;36.50;25.05;;;;;;;;;;5015869;28;20147;-70
2022/01/14 05:17:34;;;;;;;37.45;26.20;;;;;;;;;;5008341;28;20111;-71
2022/01/14 05:20:01;;;;;;;44.42;26.60;;;;;;;;;;5011369;28;20034;-68
2022/01/14 05:22:27;;;;;;;44.15;27.23;;;;;;;;;;5009669;28;20402;-69
2022/01/14 05:24:53;;;;;;;43.08;22.88;;;;;;;;;;5015161;28;20498;-68
2022/01/14 05:27:19;;;;;;;43.13;25.42;;;;;;;;;;5007304;28;20030;-71
2022/01/14 05:29:45;;;;;;;36.00;27.08;;;;;;;;;;5007119;28;20038;-70
2022/01/14 05:32:14;;;;;;;54.63;30.75;;;;;;;;;;5013637;28;20117;-70
2022/01/14 05:34:40;;;;;;;46.10;30.35;;;;;;;;;;5009285;28;20124;-69
2022/01/14 05:37:07;;;;;;;65.93;37.75;;;;;;;;;;5002165;28;20034;-70
2022/01/14 05:39:33;;;;;;;36.90;26.20;;;;;;;;;;5006151;28;20033;-70
2022/01/14 05:42:00;;;;;;;150.85;81.05;;;;;;;;;;5007679;28;20481;-69
2022/01/14 05:44:30;;;;;;;68.30;39.72;;;;;;;;;;5009774;28;20346;-69
2022/01/14 05:46:57;;;;;;;66.55;33.33;;;;;;;;;;5009358;28;20038;-70
2022/01/14 05:49:23;;;;;;;69.70;38.75;;;;;;;;;;5006938;28;20447;-70
2022/01/14 05:51:49;;;;;;;38.35;25.23;;;;;;;;;;5006092;28;20042;-69
2022/01/14 05:54:15;;;;;;;33.58;24.90;;;;;;;;;;5008384;28;20037;-70
2022/01/14 05:56:41;;;;;;;43.15;26.27;;;;;;;;;;5000052;28;20022;-70
2022/01/14 05:59:07;;;;;;;41.33;26.75;;;;;;;;;;5000581;28;20100;-70
2022/01/14 06:01:33;;;;;;;34.85;25.48;;;;;;;;;;5005974;28;20036;-71
2022/01/14 06:04:03;;;;;;;35.72;25.33;;;;;;;;;;5004826;28;20041;-69
2022/01/14 06:06:30;;;;;;;39.78;25.02;;;;;;;;;;5005994;28;20145;-70
2022/01/14 06:08:56;;;;;;;34.03;24.05;;;;;;;;;;5006058;28;20041;-70
2022/01/14 06:11:21;;;;;;;34.30;25.60;;;;;;;;;;5010517;28;20033;-70
2022/01/14 06:13:47;;;;;;;32.88;24.98;;;;;;;;;;5006006;28;20052;-69
2022/01/14 06:16:14;;;;;;;38.92;24.60;;;;;;;;;;5004787;28;20428;-70
2022/01/14 06:18:40;;;;;;;46.53;26.17;;;;;;;;;;5008951;28;20038;-70
2022/01/14 06:21:06;;;;;;;41.42;25.65;;;;;;;;;;5012347;28;20045;-70
2022/01/14 06:23:32;;;;;;;46.90;28.55;;;;;;;;;;5004725;28;20413;-70
2022/01/14 06:25:58;;;;;;;34.95;25.60;;;;;;;;;;5003164;28;20470;-70
2022/01/14 06:28:23;;;;;;;32.70;24.05;;;;;;;;;;5005875;28;20242;-69
2022/01/14 06:30:49;;;;;;;26.70;22.23;;;;;;;;;;5008207;28;20120;-69
2022/01/14 06:33:15;;;;;;;29.55;24.77;;;;;;;;;;4985535;28;20556;-69
2022/01/14 06:35:41;;;;;;;27.10;21.38;;;;;;;;;;4985269;28;20481;-69
2022/01/14 06:38:07;;;;;;;42.40;24.70;;;;;;;;;;5012553;28;20042;-70
2022/01/14 06:40:33;;;;;;;38.00;22.70;;;;;;;;;;5007680;28;20033;-69
2022/01/14 06:42:59;;;;;;;20.42;18.48;;;;;;;;;;5004106;28;20034;-69
2022/01/14 06:45:25;;;;;;;26.20;19.58;;;;;;;;;;5008259;28;20034;-69
2022/01/14 06:47:51;;;;;;;22.67;19.80;;;;;;;;;;5009542;28;20412;-71
2022/01/14 06:50:17;;;;;;;22.67;20.33;;;;;;;;;;5006088;28;20033;-70
2022/01/14 06:52:43;;;;;;;33.15;23.13;;;;;;;;;;5004295;28;20045;-69
2022/01/14 06:55:10;;;;;;;19.23;17.33;;;;;;;;;;5012259;28;20034;-69
2022/01/14 06:57:36;;;;;;;42.70;27.90;;;;;;;;;;5008529;28;20412;-69
2022/01/14 07:00:11;;;;;;;36.85;24.17;;;;;;;;;;5003470;28;20079;-69
2022/01/14 07:02:36;;;;;;;40.95;27.15;;;;;;;;;;5001525;28;20056;-68
2022/01/14 07:05:03;;;;;;;49.60;31.88;;;;;;;;;;5007590;28;20045;-68
2022/01/14 07:07:29;;;;;;;23.15;18.90;;;;;;;;;;5007500;28;20053;-69
2022/01/14 07:09:58;;;;;;;30.95;22.67;;;;;;;;;;5006841;28;20034;-69
2022/01/14 07:12:30;;;;;;;41.35;24.58;;;;;;;;;;5009533;28;20029;-69
2022/01/14 07:14:56;;;;;;;37.92;27.27;;;;;;;;;;5012871;28;20033;-68
2022/01/14 07:17:23;;;;;;;35.35;24.17;;;;;;;;;;4996864;28;20168;-69
2022/01/14 07:19:53;;;;;;;39.10;26.85;;;;;;;;;;5015106;28;20404;-68
2022/01/14 07:22:19;;;;;;;39.13;26.50;;;;;;;;;;4993569;28;20508;-69
2022/01/14 07:24:45;;;;;;;40.13;25.75;;;;;;;;;;5018111;28;20076;-68
2022/01/14 07:27:11;;;;;;;43.72;27.63;;;;;;;;;;4994817;28;20457;-69
2022/01/14 07:29:37;;;;;;;38.22;25.48;;;;;;;;;;4976515;28;20468;-68
2022/01/14 07:32:03;;;;;;;40.80;26.52;;;;;;;;;;5012218;28;20493;-69
2022/01/14 07:34:30;;;;;;;38.17;25.85;;;;;;;;;;5009847;28;20038;-67
2022/01/14 07:36:56;;;;;;;31.02;23.23;;;;;;;;;;4978821;28;20042;-70
2022/01/14 07:39:23;;;;;;;34.70;25.67;;;;;;;;;;5011634;28;20141;-70
2022/01/14 07:41:50;;;;;;;32.67;24.42;;;;;;;;;;5018919;28;20532;-68
2022/01/14 07:44:17;;;;;;;37.70;25.73;;;;;;;;;;4994481;28;20100;-68
2022/01/14 07:46:43;;;;;;;33.65;22.75;;;;;;;;;;5006342;28;20084;-70
2022/01/14 07:49:09;;;;;;;33.42;24.42;;;;;;;;;;5013482;28;20037;-69
2022/01/14 07:51:35;;;;;;;37.25;24.33;;;;;;;;;;5010860;28;20382;-71
2022/01/14 07:54:05;;;;;;;42.35;26.83;;;;;;;;;;5008682;28;20147;-68
2022/01/14 07:56:35;;;;;;;34.83;26.23;;;;;;;;;;5008223;28;20053;-69
2022/01/14 07:59:02;;;;;;;37.33;26.65;;;;;;;;;;5008723;28;20081;-68
2022/01/14 08:01:28;;;;;;;44.63;28.67;;;;;;;;;;4999638;28;20038;-68
2022/01/14 08:03:54;;;;;;;39.95;28.27;;;;;;;;;;5005699;28;20448;-67
2022/01/14 08:06:22;;;;;;;48.22;29.15;;;;;;;;;;5007897;28;20284;-68
2022/01/14 08:08:47;;;;;;;42.30;27.73;;;;;;;;;;5018954;28;20086;-71
2022/01/14 08:11:13;;;;;;;29.98;24.80;;;;;;;;;;5008848;28;20123;-71
2022/01/14 08:13:38;;;;;;;40.70;25.80;;;;;;;;;;5008347;28;20044;-70
2022/01/14 08:16:04;;;;;;;34.42;25.63;;;;;;;;;;5009422;28;20536;-69
2022/01/14 08:18:30;;;;;;;26.55;22.90;;;;;;;;;;5016512;28;20481;-68
2022/01/14 08:20:56;;;;;;;33.25;24.13;;;;;;;;;;4989204;28;20042;-69
2022/01/14 08:23:22;;;;;;;31.23;23.92;;;;;;;;;;5010022;28;20052;-69
2022/01/14 08:25:52;;;;;;;30.90;23.92;;;;;;;;;;5008443;28;20045;-69
2022/01/14 08:28:19;;;;;;;31.48;24.42;;;;;;;;;;5006262;28;20026;-69
2022/01/14 08:30:45;;;;;;;33.65;24.95;;;;;;;;;;5004117;28;20045;-70
2022/01/14 08:33:12;;;;;;;33.70;26.27;;;;;;;;;;4997290;28;20095;-70
2022/01/14 08:35:39;;;;;;;29.27;24.20;;;;;;;;;;5009103;28;20030;-70
2022/01/14 08:38:05;;;;;;;35.05;24.73;;;;;;;;;;5015424;28;20500;-68
2022/01/14 08:40:31;;;;;;;31.50;24.52;;;;;;;;;;5014847;28;20045;-69
2022/01/14 08:42:56;;;;;;;33.75;25.60;;;;;;;;;;5017770;28;20035;-70
2022/01/14 08:45:23;;;;;;;28.40;24.45;;;;;;;;;;5018434;28;20038;-70
2022/01/14 08:47:52;;;;;;;30.45;24.88;;;;;;;;;;5018040;28;20120;-70
2022/01/14 08:50:29;;;;;;;29.85;24.45;;;;;;;;;;5015527;28;20532;-69
2022/01/14 08:52:56;;;;;;;28.92;23.73;;;;;;;;;;5014378;28;20128;-70
2022/01/14 08:55:22;;;;;;;26.77;23.30;;;;;;;;;;5018916;28;20041;-69
2022/01/14 08:57:48;;;;;;;28.90;23.55;;;;;;;;;;5016083;28;20396;-70
2022/01/14 09:00:16;;;;;;;28.05;22.05;;;;;;;;;;4999669;28;20033;-69
2022/01/14 09:02:41;;;;;;;30.13;24.73;;;;;;;;;;5002588;28;20139;-70
2022/01/14 09:05:08;;;;;;;29.67;23.75;;;;;;;;;;5007124;28;20121;-70
2022/01/14 09:07:34;;;;;;;27.38;22.63;;;;;;;;;;5006487;28;20080;-71
2022/01/14 09:10:00;;;;;;;29.45;23.33;;;;;;;;;;5015291;28;20040;-70
2022/01/14 09:12:25;;;;;;;24.83;22.20;;;;;;;;;;5010810;28;20033;-70
2022/01/14 09:14:51;;;;;;;27.20;21.73;;;;;;;;;;5010073;28;20133;-70
2022/01/14 09:17:17;;;;;;;29.00;22.05;;;;;;;;;;5003105;28;20053;-71
2022/01/14 09:19:44;;;;;;;28.88;22.45;;;;;;;;;;5002593;28;20144;-72
2022/01/14 09:22:10;;;;;;;31.98;23.05;;;;;;;;;;5003424;28;20030;-72
2022/01/14 09:24:36;;;;;;;28.50;23.13;;;;;;;;;;5008109;28;20042;-70
2022/01/14 09:27:03;;;;;;;27.23;24.20;;;;;;;;;;5017088;28;20045;-70
2022/01/14 09:29:29;;;;;;;28.80;22.73;;;;;;;;;;5007687;28;20034;-72
2022/01/14 09:31:54;;;;;;;29.33;23.33;;;;;;;;;;5015508;28;20046;-71
2022/01/14 09:34:20;;;;;;;31.25;24.33;;;;;;;;;;5002482;28;20547;-71
2022/01/14 09:36:46;;;;;;;32.75;23.80;;;;;;;;;;5006257;28;20036;-71
2022/01/14 09:39:12;;;;;;;27.23;23.40;;;;;;;;;;5013539;28;20037;-72
2022/01/14 09:41:37;;;;;;;30.15;24.33;;;;;;;;;;5013743;28;20124;-71
2022/01/14 09:44:03;;;;;;;28.17;23.90;;;;;;;;;;4983202;28;20481;-70
2022/01/14 09:46:29;;;;;;;31.30;24.27;;;;;;;;;;5006577;28;20088;-70
2022/01/14 09:48:55;;;;;;;28.40;24.75;;;;;;;;;;5005081;28;20034;-70
2022/01/14 09:51:20;;;;;;;28.42;23.85;;;;;;;;;;5005113;28;20093;-70
2022/01/14 09:53:47;;;;;;;26.98;22.83;;;;;;;;;;5005901;28;20371;-70
2022/01/14 09:56:21;;;;;;;26.95;22.77;;;;;;;;;;5003977;28;20026;-70
2022/01/14 09:58:48;;;;;;;27.98;24.50;;;;;;;;;;5015259;28;20037;-70
2022/01/14 10:01:22;;;;;;;28.38;24.17;;;;;;;;;;5001789;28;20073;-70
2022/01/14 10:03:54;;;;;;;27.02;23.35;;;;;;;;;;5003034;28;20026;-71
2022/01/14 10:06:46;;;;;;;26.63;22.13;;;;;;;;;;5005174;28;20148;-70
2022/01/14 10:09:27;;;;;;;25.60;22.77;;;;;;;;;;5008848;28;20041;-70
2022/01/14 10:12:07;;;;;;;29.38;24.15;;;;;;;;;;5005227;28;20049;-71
2022/01/14 10:14:36;;;;;;;26.52;23.30;;;;;;;;;;5013958;28;20120;-70
2022/01/14 10:17:04;;;;;;;27.05;23.50;;;;;;;;;;5008167;28;20477;-71
2022/01/14 10:19:34;;;;;;;27.17;23.57;;;;;;;;;;5003328;28;20439;-71
2022/01/14 10:22:00;;;;;;;28.23;24.02;;;;;;;;;;5007450;28;20025;-71
2022/01/14 10:24:32;;;;;;;26.92;22.52;;;;;;;;;;5005074;28;20373;-69
2022/01/14 10:27:03;;;;;;;27.20;23.75;;;;;;;;;;5002329;28;20049;-70
2022/01/14 10:29:40;;;;;;;25.35;22.67;;;;;;;;;;5003154;28;20129;-71
2022/01/14 10:32:08;;;;;;;26.75;22.95;;;;;;;;;;5008247;28;20120;-71
2022/01/14 10:34:35;;;;;;;30.30;24.48;;;;;;;;;;5000582;28;20049;-71
2022/01/14 10:37:10;;;;;;;25.90;22.73;;;;;;;;;;5003452;28;20071;-71
2022/01/14 10:39:44;;;;;;;26.63;23.83;;;;;;;;;;5011884;28;20456;-70
2022/01/14 10:42:28;;;;;;;30.10;23.30;;;;;;;;;;5006956;28;20029;-70
2022/01/14 10:44:55;;;;;;;28.92;23.42;;;;;;;;;;5005926;28;20140;-72
2022/01/14 10:47:25;;;;;;;28.25;23.48;;;;;;;;;;5015519;28;20410;-72
2022/01/14 10:49:56;;;;;;;31.33;23.77;;;;;;;;;;5002452;28;20042;-71
2022/01/14 10:52:26;;;;;;;28.73;22.73;;;;;;;;;;5005474;28;20096;-71
2022/01/14 10:54:55;;;;;;;28.77;23.58;;;;;;;;;;5006721;28;20036;-71
2022/01/14 10:57:27;;;;;;;26.47;23.60;;;;;;;;;;5010307;28;20109;-72
2022/01/14 10:59:56;;;;;;;26.10;23.38;;;;;;;;;;5004944;28;20077;-71
2022/01/14 11:02:45;;;;;;;26.50;23.38;;;;;;;;;;5004072;28;20030;-72
2022/01/14 11:05:19;;;;;;;25.20;22.63;;;;;;;;;;5008565;28;20088;-71
2022/01/14 11:07:47;;;;;;;26.70;22.38;;;;;;;;;;5005809;28;20573;-71
2022/01/14 11:10:15;;;;;;;27.30;22.15;;;;;;;;;;4996026;28;20044;-71
2022/01/14 11:12:42;;;;;;;26.35;20.23;;;;;;;;;;5008086;28;20124;-71
2022/01/14 11:15:09;;;;;;;26.63;22.35;;;;;;;;;;5012054;28;20036;-70
2022/01/14 11:17:40;;;;;;;30.92;22.92;;;;;;;;;;5017247;28;20295;-71
2022/01/14 11:20:08;;;;;;;25.77;22.45;;;;;;;;;;5008083;28;20500;-72
2022/01/14 11:25:19;;;;;;;32.78;24.35;;;;;;;;;;5004786;28;20650;-70
2022/01/14 11:27:53;;;;;;;25.92;23.08;;;;;;;;;;5001507;28;20042;-70
2022/01/14 11:30:19;;;;;;;25.65;22.15;;;;;;;;;;5006433;28;20178;-70
2022/01/14 11:32:56;;;;;;;28.20;23.20;;;;;;;;;;5010789;28;20034;-71
2022/01/14 11:35:25;;;;;;;26.40;22.88;;;;;;;;;;4999002;28;20033;-70
2022/01/14 11:37:50;;;;;;;26.05;22.45;;;;;;;;;;4996298;28;20145;-71
2022/01/14 11:40:16;;;;;;;39.33;28.05;;;;;;;;;;4985667;28;20113;-70
2022/01/14 11:43:01;;;;;;;31.25;24.55;;;;;;;;;;4988275;28;20297;-69
2022/01/14 11:45:42;;;;;;;35.42;26.48;;;;;;;;;;4999585;28;21351;-72
2022/01/14 11:48:32;;;;;;;25.33;22.58;;;;;;;;;;5003622;28;20200;-71
2022/01/14 11:51:01;;;;;;;;;;;;;;;;;;5008623;28;20095;-71
2022/01/14 11:53:40;;;;;;;26.30;22.10;;;;;;;;;;5005984;28;20567;-71
2022/01/14 11:56:32;;;;;;;25.90;23.27;;;;;;;;;;5002054;28;20034;-71
2022/01/14 11:59:20;;;;;;;24.25;21.65;;;;;;;;;;4988039;28;20134;-70
2022/01/14 12:01:56;;;;;;;24.20;21.37;;;;;;;;;;5002292;28;20085;-70
2022/01/14 12:04:42;;;;;;;29.92;22.73;;;;;;;;;;5010549;28;20033;-70
2022/01/14 12:07:08;;;;;;;26.27;22.20;;;;;;;;;;5013315;28;20042;-70
2022/01/14 12:10:19;;;;;;;27.00;22.52;;;;;;;;;;5011441;28;20041;-70
2022/01/14 12:12:50;;;;;;;27.00;22.42;;;;;;;;;;5005321;28;20056;-71
2022/01/14 12:15:47;;;;;;;26.00;22.70;;;;;;;;;;5005357;28;20479;-70
2022/01/14 12:18:13;;;;;;;35.85;26.27;;;;;;;;;;5007622;28;20029;-70
2022/01/14 12:20:48;;;;;;;96.35;51.10;;;;;;;;;;5009926;28;20034;-71
2022/01/14 12:23:17;;;;;;;25.75;23.10;;;;;;;;;;5001167;28;20051;-70
2022/01/14 12:25:45;;;;;;;31.60;28.25;;;;;;;;;;5006361;28;20025;-70
2022/01/14 12:28:21;;;;;;;25.05;22.30;;;;;;;;;;5005010;28;20507;-70
2022/01/14 12:31:02;;;;;;;25.85;21.33;;;;;;;;;;5008049;28;20481;-70
2022/01/14 12:33:51;;;;;;;30.40;26.13;;;;;;;;;;5006188;28;20034;-70
2022/01/14 12:36:20;;;;;;;25.52;22.92;;;;;;;;;;5004413;28;20030;-70
2022/01/14 12:38:46;;;;;;;24.65;22.08;;;;;;;;;;5006926;28;20049;-70
2022/01/14 12:41:19;;;;;;;24.15;21.80;;;;;;;;;;5002324;28;20038;-68
2022/01/14 12:43:52;;;;;;;26.63;23.90;;;;;;;;;;5007591;28;20512;-69
2022/01/14 12:46:35;;;;;;;27.38;23.77;;;;;;;;;;5000612;28;20154;-70
2022/01/14 12:49:07;;;;;;;24.15;21.70;;;;;;;;;;5007633;28;20141;-70
2022/01/14 12:51:33;;;;;;;24.67;22.25;;;;;;;;;;5006347;28;20040;-70
2022/01/14 12:54:01;;;;;;;23.17;20.83;;;;;;;;;;5008898;28;20430;-70
2022/01/14 12:56:29;;;;;;;25.57;22.90;;;;;;;;;;5002629;28;20029;-70
2022/01/14 12:59:15;;;;;;;23.63;20.85;;;;;;;;;;5005793;28;20669;-70
2022/01/14 13:01:52;;;;;;;23.33;21.13;;;;;;;;;;5006875;28;20081;-70
2022/01/14 13:04:19;;;;;;;22.52;20.17;;;;;;;;;;4997076;28;20026;-71
2022/01/14 13:06:48;;;;;;;23.20;20.75;;;;;;;;;;5001591;28;20042;-70
2022/01/14 13:09:19;;;;;;;22.77;20.70;;;;;;;;;;4996095;28;20084;-71
2022/01/14 13:11:50;;;;;;;24.92;21.13;;;;;;;;;;4999789;28;20556;-71
2022/01/14 13:14:22;;;;;;;22.83;20.42;;;;;;;;;;4997459;28;20038;-70
2022/01/14 13:16:53;;;;;;;22.50;20.27;;;;;;;;;;5002109;28;20268;-70
2022/01/14 13:19:30;;;;;;;21.27;19.27;;;;;;;;;;4999192;28;20046;-70
2022/01/14 13:21:57;;;;;;;22.38;19.95;;;;;;;;;;4979660;28;20041;-71
2022/01/14 13:24:25;;;;;;;22.15;19.85;;;;;;;;;;4995704;28;20068;-71
2022/01/14 13:27:09;;;;;;;22.52;20.17;;;;;;;;;;4997472;28;20053;-71
2022/01/14 13:29:36;;;;;;;21.50;19.40;;;;;;;;;;5002390;28;20034;-70
2022/01/14 13:32:03;;;;;;;21.83;19.67;;;;;;;;;;5001520;28;20513;-70
2022/01/14 13:34:29;;;;;;;21.58;19.40;;;;;;;;;;5000106;28;20049;-70
2022/01/14 13:36:54;;;;;;;22.85;20.55;;;;;;;;;;5002171;28;20029;-71
2022/01/14 13:39:20;;;;;;;22.10;20.02;;;;;;;;;;5007993;28;20034;-71
2022/01/14 13:41:46;;;;;;;20.25;18.25;;;;;;;;;;5003769;28;20042;-71
2022/01/14 13:44:15;;;;;;;19.35;17.40;;;;;;;;;;5001332;28;20042;-70
2022/01/14 13:46:50;;;;;;;21.13;18.85;;;;;;;;;;5011251;28;20045;-71
2022/01/14 13:49:22;;;;;;;20.48;18.55;;;;;;;;;;5004761;28;20120;-70
2022/01/14 13:52:08;;;;;;;22.75;17.67;;;;;;;;;;5002151;28;20565;-70
2022/01/14 13:54:34;;;;;;;20.10;18.17;;;;;;;;;;4981472;28;20048;-70
2022/01/14 13:57:12;;;;;;;20.02;17.73;;;;;;;;;;5001461;28;20045;-70
2022/01/14 13:59:38;;;;;;;19.85;18.02;;;;;;;;;;4996995;28;20037;-71
2022/01/14 14:02:06;;;;;;;21.85;19.70;;;;;;;;;;5004157;28;20481;-69
2022/01/14 14:04:36;;;;;;;32.72;26.13;;;;;;;;;;4989195;28;20038;-70
2022/01/14 14:07:09;;;;;;;24.02;21.15;;;;;;;;;;5006494;28;20077;-70
2022/01/14 14:09:52;;;;;;;20.45;18.40;;;;;;;;;;4999006;28;20040;-70
2022/01/14 14:15:44;;;;;;;19.55;17.55;;;;;;;;;;5006809;28;20042;-70
2022/01/14 14:17:40;;;;;;;20.08;18.13;;;;;;;;;;4986465;28;20089;-70
2022/01/14 14:20:07;;;;;;;20.80;18.73;;;;;;;;;;5007450;28;20475;-71
2022/01/14 14:22:39;;;;;;;20.13;18.13;;;;;;;;;;5007783;28;20037;-69
2022/01/14 14:27:59;;;;;;;20.80;18.75;;;;;;;;;;4993350;28;20049;-69
2022/01/14 14:30:31;;;;;;;20.45;17.75;;;;;;;;;;5009989;28;20087;-70
2022/01/14 14:32:57;;;;;;;19.50;17.55;;;;;;;;;;5001215;28;20460;-70
2022/01/14 14:35:23;;;;;;;19.42;17.42;;;;;;;;;;5012174;28;20284;-70
2022/01/14 14:37:53;;;;;;;19.92;17.95;;;;;;;;;;5004945;28;20034;-70
2022/01/14 14:40:24;;;;;;;19.55;17.65;;;;;;;;;;5000847;28;20044;-70
2022/01/14 14:42:49;;;;;;;18.88;16.98;;;;;;;;;;5008844;28;20048;-69
2022/01/14 14:45:16;;;;;;;22.38;17.90;;;;;;;;;;5004348;28;20045;-69
2022/01/14 14:47:42;;;;;;;18.85;16.52;;;;;;;;;;5005474;28;20049;-69
2022/01/14 14:50:10;;;;;;;19.67;17.77;;;;;;;;;;5004616;28;20123;-69
2022/01/14 14:52:37;;;;;;;20.60;18.23;;;;;;;;;;5003029;28;20073;-69
2022/01/14 14:55:07;;;;;;;19.65;17.90;;;;;;;;;;4998822;28;20560;-69
2022/01/14 14:57:33;;;;;;;20.67;18.60;;;;;;;;;;5002681;28;20045;-70